Time;durP1;ratioP1;P1;durP2;ratioP2;P2;SDS_P1;SDS_P2;PMS_P1;PMS_P2;Temp;Humidity;BMP_temperature;BMP_pressure;BME280_temperature;BME280_humidity;BME280_pressure;Samples;Min_cycle;Max_cycle;Signal;HPM_P1;HPM_P2
2020/12/19 00:00:09;;;;;;;59.05;39.78;;;;;;;9.97;75.73;101558.09;4966605;28;98595;-71
2020/12/19 00:02:36;;;;;;;53.33;39.85;;;;;;;9.80;76.21;101552.44;4963014;28;96748;-70
2020/12/19 00:05:05;;;;;;;56.33;39.05;;;;;;;9.76;77.00;101561.25;4962338;28;96974;-71
2020/12/19 00:07:32;;;;;;;55.70;40.70;;;;;;;9.81;76.48;101552.44;4960408;28;98492;-70
2020/12/19 00:09:59;;;;;;;52.08;41.15;;;;;;;9.87;75.98;101554.00;4948958;28;99308;-71
2020/12/19 00:12:26;;;;;;;58.30;41.50;;;;;;;9.80;76.46;101549.84;4945162;28;97028;-70
2020/12/19 00:14:52;;;;;;;59.72;40.65;;;;;;;9.71;77.01;101553.56;4960315;28;98762;-70
2020/12/19 00:17:19;;;;;;;61.70;39.40;;;;;;;9.87;76.18;101538.38;4962876;28;98626;-70
2020/12/19 00:19:45;;;;;;;60.75;40.10;;;;;;;9.84;76.11;101541.91;4964473;28;98697;-70
2020/12/19 00:22:12;;;;;;;56.25;38.60;;;;;;;9.87;76.34;101541.00;4961446;28;96650;-70
2020/12/19 00:24:38;;;;;;;63.00;41.42;;;;;;;9.77;76.46;101542.97;4965548;28;99205;-70
2020/12/19 00:27:09;;;;;;;60.47;41.42;;;;;;;9.86;76.08;101536.69;4958896;28;98593;-71
2020/12/19 00:29:35;;;;;;;58.50;39.90;;;;;;;9.84;76.18;101538.44;4967581;28;98560;-71
2020/12/19 00:32:02;;;;;;;65.22;39.83;;;;;;;9.83;76.33;101544.56;4961786;28;97439;-71
2020/12/19 00:34:29;;;;;;;60.13;40.33;;;;;;;9.80;76.55;101542.91;4963126;28;100769;-71
2020/12/19 00:36:55;;;;;;;70.70;40.95;;;;;;;9.78;76.45;101543.81;4962133;28;98637;-70
2020/12/19 00:39:22;;;;;;;62.15;39.35;;;;;;;9.78;76.30;101539.47;4958139;28;98428;-71
2020/12/19 00:41:48;;;;;;;68.47;40.88;;;;;;;9.79;76.16;101538.56;4957382;28;97563;-72
2020/12/19 00:44:15;;;;;;;65.78;42.00;;;;;;;9.85;76.19;101545.38;4961222;28;97484;-71
2020/12/19 00:46:41;;;;;;;61.33;39.25;;;;;;;9.82;76.06;101540.25;4948436;28;98870;-71
2020/12/19 00:49:07;;;;;;;68.10;40.10;;;;;;;9.83;75.84;101542.81;4962289;28;97734;-71
2020/12/19 00:51:34;;;;;;;63.67;41.50;;;;;;;9.75;76.49;101541.28;4932837;28;97416;-71
2020/12/19 00:54:00;;;;;;;62.10;39.08;;;;;;;9.83;76.08;101545.41;4960904;28;98355;-71
2020/12/19 00:56:27;;;;;;;60.13;39.30;;;;;;;9.81;76.12;101544.63;4959900;28;99783;-69
2020/12/19 00:58:54;;;;;;;62.30;41.28;;;;;;;9.67;76.38;101541.50;4962849;28;98480;-68
2020/12/19 01:01:23;;;;;;;61.15;41.60;;;;;;;9.79;76.19;101537.72;4964812;28;96836;-68
2020/12/19 01:03:50;;;;;;;55.53;37.70;;;;;;;9.83;75.85;101535.00;4960859;28;98938;-68
2020/12/19 01:06:20;;;;;;;60.35;40.03;;;;;;;9.79;76.46;101538.56;4947801;28;98533;-69
2020/12/19 01:08:48;;;;;;;55.63;37.55;;;;;;;9.78;76.14;101534.25;4963075;28;98450;-69
2020/12/19 01:11:30;;;;;;;55.67;37.60;;;;;;;9.84;75.68;101534.09;4964168;28;99848;-69
2020/12/19 01:13:57;;;;;;;60.17;39.05;;;;;;;9.93;75.58;101533.00;4961135;28;97429;-69
2020/12/19 01:16:25;;;;;;;57.15;39.22;;;;;;;9.83;76.00;101537.59;4965335;28;98861;-69
2020/12/19 01:18:53;;;;;;;57.92;40.35;;;;;;;9.84;75.56;101530.63;4958882;28;99730;-69
2020/12/19 01:21:23;;;;;;;55.60;35.40;;;;;;;9.91;75.53;101534.81;4960708;28;96628;-69
2020/12/19 01:23:49;;;;;;;54.05;37.40;;;;;;;9.90;75.39;101533.09;4964057;28;100610;-69
2020/12/19 01:26:18;;;;;;;60.78;39.28;;;;;;;9.80;76.36;101534.22;4958428;28;99638;-69
2020/12/19 01:28:44;;;;;;;55.72;36.80;;;;;;;9.71;76.37;101533.56;4965470;28;98432;-69
2020/12/19 01:31:14;;;;;;;62.33;39.55;;;;;;;9.77;76.22;101536.91;4963736;28;97211;-69
2020/12/19 01:33:41;;;;;;;55.28;38.47;;;;;;;9.69;76.22;101535.38;4962558;28;99446;-69
2020/12/19 01:36:09;;;;;;;61.58;38.63;;;;;;;9.72;76.34;101537.03;4964288;28;97526;-68
2020/12/19 01:38:36;;;;;;;51.78;36.03;;;;;;;9.83;76.00;101532.41;4962324;28;98637;-69
2020/12/19 01:41:02;;;;;;;67.53;41.08;;;;;;;9.89;75.52;101531.38;4961498;28;97476;-69
2020/12/19 01:43:42;;;;;;;51.08;37.78;;;;;;;9.88;75.80;101530.53;4963102;28;98111;-69
2020/12/19 01:46:08;;;;;;;54.35;36.83;;;;;;;9.85;75.72;101528.00;4961577;28;98347;-68
2020/12/19 01:48:35;;;;;;;51.50;35.72;;;;;;;9.74;76.49;101527.41;4966498;28;97547;-69
2020/12/19 01:51:01;;;;;;;59.88;36.20;;;;;;;9.88;75.75;101529.69;4950120;28;96641;-68
2020/12/19 01:53:27;;;;;;;55.85;38.50;;;;;;;9.73;76.87;101528.31;4949878;28;97559;-68
2020/12/19 01:55:53;;;;;;;55.50;37.38;;;;;;;9.75;76.54;101529.16;4947148;28;99956;-68
2020/12/19 01:58:20;;;;;;;58.42;38.25;;;;;;;9.75;76.65;101528.28;4944461;28;98582;-69
2020/12/19 02:00:46;;;;;;;63.08;38.22;;;;;;;9.77;76.32;101518.69;4965126;28;98779;-69
2020/12/19 02:03:14;;;;;;;53.92;36.53;;;;;;;9.73;76.65;101519.66;4961767;28;99403;-68
2020/12/19 02:05:47;;;;;;;49.63;36.58;;;;;;;9.73;76.72;101514.44;4962817;28;98603;-68
2020/12/19 02:08:13;;;;;;;60.70;37.75;;;;;;;9.86;76.02;101510.63;4948755;28;99163;-69
2020/12/19 02:10:39;;;;;;;60.05;37.33;;;;;;;9.80;76.24;101511.66;4961526;28;98233;-69
2020/12/19 02:13:05;;;;;;;59.53;37.72;;;;;;;9.78;76.38;101512.59;4961266;28;98532;-67
2020/12/19 02:15:39;;;;;;;51.30;36.97;;;;;;;9.86;75.90;101508.03;4947728;28;98412;-69
2020/12/19 02:18:06;;;;;;;55.88;37.33;;;;;;;9.85;75.70;101501.94;4962178;28;98585;-68
2020/12/19 02:20:32;;;;;;;58.20;37.55;;;;;;;9.91;75.60;101498.34;4963493;28;100005;-68
2020/12/19 02:22:58;;;;;;;57.78;37.72;;;;;;;9.85;75.72;101499.34;4964154;28;97936;-69
2020/12/19 02:25:30;;;;;;;58.40;38.13;;;;;;;9.77;76.58;101496.09;4927532;28;100567;-69
2020/12/19 02:27:56;;;;;;;59.58;38.03;;;;;;;9.73;76.04;101494.47;4961595;28;99188;-69
2020/12/19 02:30:22;;;;;;;62.90;38.60;;;;;;;9.82;76.47;101493.38;4944109;28;97324;-69
2020/12/19 02:32:49;;;;;;;66.50;41.92;;;;;;;9.83;75.95;101489.88;4949690;28;98018;-68
2020/12/19 02:35:15;;;;;;;53.10;35.42;;;;;;;9.94;75.38;101483.47;4947212;28;98754;-68
2020/12/19 02:37:42;;;;;;;52.78;37.28;;;;;;;9.85;75.72;101491.53;4962394;28;98337;-69
2020/12/19 02:40:08;;;;;;;66.97;41.72;;;;;;;9.75;76.48;101481.41;4943358;28;96716;-68
2020/12/19 02:42:34;;;;;;;59.70;38.30;;;;;;;9.69;76.99;101487.63;4961343;28;96835;-69
2020/12/19 02:45:01;;;;;;;65.88;39.28;;;;;;;9.68;76.90;101491.97;4963374;28;98507;-69
2020/12/19 02:47:27;;;;;;;51.83;37.00;;;;;;;9.80;76.35;101495.16;4958882;28;98641;-69
2020/12/19 02:49:53;;;;;;;53.38;36.40;;;;;;;9.81;76.12;101489.94;4964042;28;97516;-69
2020/12/19 02:52:20;;;;;;;60.20;37.80;;;;;;;9.88;75.99;101485.41;4961185;28;97211;-70
2020/12/19 02:54:46;;;;;;;61.45;39.28;;;;;;;9.89;76.13;101482.75;4959813;28;98745;-69
2020/12/19 02:57:13;;;;;;;59.58;39.63;;;;;;;9.86;75.98;101489.81;4942580;28;100651;-69
2020/12/19 02:59:39;;;;;;;60.10;37.10;;;;;;;9.81;76.67;101492.53;4962138;28;97313;-69
2020/12/19 03:02:06;;;;;;;62.20;38.42;;;;;;;9.81;76.66;101489.94;4962617;28;98161;-68
2020/12/19 03:04:32;;;;;;;61.63;43.05;;;;;;;9.78;77.19;101497.81;4968122;28;99656;-69
2020/12/19 03:06:58;;;;;;;61.47;39.35;;;;;;;9.81;76.92;101495.13;4963693;28;97565;-69
2020/12/19 03:09:25;;;;;;;58.60;39.20;;;;;;;9.86;76.69;101497.63;4967226;28;99972;-69
2020/12/19 03:11:51;;;;;;;71.38;37.65;;;;;;;9.87;76.41;101504.53;4964242;28;96642;-69
2020/12/19 03:14:19;;;;;;;62.40;40.47;;;;;;;9.88;76.48;101493.22;4962853;28;97400;-69
2020/12/19 03:16:45;;;;;;;59.90;39.33;;;;;;;9.86;76.38;101488.06;4967039;28;98618;-69
2020/12/19 03:19:12;;;;;;;62.38;41.33;;;;;;;9.88;76.31;101494.06;4962814;28;97512;-70
2020/12/19 03:21:38;;;;;;;61.13;38.22;;;;;;;9.92;76.57;101487.03;4965535;28;97490;-69
2020/12/19 03:24:05;;;;;;;59.88;39.65;;;;;;;9.89;76.61;101477.53;4966323;28;97751;-68
2020/12/19 03:26:31;;;;;;;63.50;36.22;;;;;;;9.96;75.75;101479.09;4968216;28;98570;-69
2020/12/19 03:28:58;;;;;;;59.90;38.03;;;;;;;9.83;76.51;101482.06;4966096;28;97833;-69
2020/12/19 03:31:24;;;;;;;55.30;35.03;;;;;;;9.73;76.68;101489.25;4962070;28;97096;-69
2020/12/19 03:33:51;;;;;;;55.70;36.45;;;;;;;9.54;78.01;101482.84;4964512;28;100779;-69
2020/12/19 03:36:18;;;;;;;54.30;37.10;;;;;;;9.75;77.13;101482.28;4963944;28;98640;-68
2020/12/19 03:38:44;;;;;;;56.45;37.83;;;;;;;9.78;76.70;101482.19;4950624;28;97349;-69
2020/12/19 03:41:10;;;;;;;56.80;37.00;;;;;;;9.78;76.95;101474.38;4962628;28;97312;-68
2020/12/19 03:43:37;;;;;;;63.22;38.35;;;;;;;9.61;77.24;101471.38;4964339;28;99482;-68
2020/12/19 03:46:03;;;;;;;59.08;38.70;;;;;;;9.62;77.28;101473.06;4962678;28;98413;-68
2020/12/19 03:48:29;;;;;;;58.20;38.20;;;;;;;9.75;76.75;101476.19;4964676;28;96665;-68
2020/12/19 03:50:56;;;;;;;59.60;37.97;;;;;;;9.79;76.38;101470.00;4967805;28;97275;-68
2020/12/19 03:53:22;;;;;;;54.03;37.75;;;;;;;9.71;77.01;101476.28;4964169;28;98685;-68
2020/12/19 03:55:49;;;;;;;54.28;35.53;;;;;;;9.73;77.00;101471.03;4964121;28;98762;-68
2020/12/19 03:58:17;;;;;;;63.60;39.50;;;;;;;9.71;77.25;101473.69;4963003;28;97675;-68
2020/12/19 04:00:44;;;;;;;56.03;39.45;;;;;;;9.69;77.11;101472.00;4962050;28;96826;-68
2020/12/19 04:03:11;;;;;;;62.83;41.10;;;;;;;9.71;76.62;101475.44;4968634;28;100211;-69
2020/12/19 04:05:39;;;;;;;59.78;37.05;;;;;;;9.78;76.17;101468.31;4964590;28;97426;-69
2020/12/19 04:08:05;;;;;;;58.90;35.58;;;;;;;9.78;76.42;101473.53;4962396;28;97985;-70
2020/12/19 04:10:33;;;;;;;60.95;38.05;;;;;;;9.78;76.61;101481.34;4963007;28;97225;-69
2020/12/19 04:13:00;;;;;;;52.83;38.05;;;;;;;9.81;76.30;101470.84;4966430;28;98975;-70
2020/12/19 04:15:27;;;;;;;55.05;36.17;;;;;;;9.95;75.92;101477.34;4963971;28;97319;-70
2020/12/19 04:17:54;;;;;;;43.83;32.60;;;;;;;9.94;75.45;101475.66;4960720;28;97049;-69
2020/12/19 04:20:21;;;;;;;51.40;36.33;;;;;;;9.90;75.65;101474.03;4965876;28;98056;-69
2020/12/19 04:22:48;;;;;;;57.72;39.30;;;;;;;9.87;75.96;101478.47;4966293;28;99025;-69
2020/12/19 04:25:16;;;;;;;64.40;37.22;;;;;;;9.83;76.52;101475.09;4965558;28;99357;-69
2020/12/19 04:27:43;;;;;;;55.13;38.17;;;;;;;9.83;76.31;101471.66;4968019;28;98064;-69
2020/12/19 04:30:10;;;;;;;55.75;36.85;;;;;;;9.86;76.18;101472.44;4965866;28;99672;-69
2020/12/19 04:32:37;;;;;;;57.92;35.70;;;;;;;9.91;76.20;101462.72;4949140;28;98929;-69
2020/12/19 04:35:04;;;;;;;58.40;36.17;;;;;;;9.90;76.10;101461.00;4966511;28;98538;-69
2020/12/19 04:37:31;;;;;;;61.90;37.38;;;;;;;9.86;76.04;101458.56;4964118;28;97814;-69
2020/12/19 04:39:58;;;;;;;56.47;37.05;;;;;;;9.76;76.50;101457.09;4963488;28;98217;-69
2020/12/19 04:42:25;;;;;;;54.65;37.55;;;;;;;9.76;76.70;101452.75;4959874;28;98640;-69
2020/12/19 04:44:52;;;;;;;59.47;37.45;;;;;;;9.71;77.18;101452.84;4959761;28;99054;-69
2020/12/19 04:47:20;;;;;;;54.08;35.92;;;;;;;9.79;76.53;101451.78;4950783;28;98273;-69
2020/12/19 04:49:47;;;;;;;52.08;35.15;;;;;;;9.93;76.07;101450.50;4961976;28;97335;-69
2020/12/19 04:52:14;;;;;;;55.35;36.30;;;;;;;9.90;75.97;101461.00;4963165;28;97748;-68
2020/12/19 04:54:41;;;;;;;61.63;35.30;;;;;;;9.80;76.28;101456.09;4963909;28;98611;-69
2020/12/19 04:57:15;;;;;;;55.42;37.45;;;;;;;9.81;76.16;101456.06;4951312;28;97069;-69
2020/12/19 04:59:41;;;;;;;57.33;36.15;;;;;;;9.80;76.87;101456.97;4950082;28;99252;-69
2020/12/19 05:02:08;;;;;;;54.03;34.90;;;;;;;9.85;76.31;101459.44;4965908;28;98462;-70
2020/12/19 05:04:37;;;;;;;54.10;35.63;;;;;;;9.78;76.13;101456.16;4950232;28;98911;-69
2020/12/19 05:07:06;;;;;;;50.17;35.63;;;;;;;9.79;76.44;101460.44;4962394;28;96957;-69
2020/12/19 05:09:40;;;;;;;53.63;33.00;;;;;;;9.82;76.09;101456.91;4958580;28;96786;-69
2020/12/19 05:12:07;;;;;;;58.07;34.60;;;;;;;9.82;76.08;101469.94;4970253;28;98608;-69
2020/12/19 05:14:34;;;;;;;55.88;32.40;;;;;;;9.93;75.60;101476.56;4974118;28;98449;-69
2020/12/19 05:17:00;;;;;;;52.15;33.97;;;;;;;9.92;75.36;101461.84;4973826;28;96898;-69
2020/12/19 05:19:31;;;;;;;55.15;31.50;;;;;;;9.87;75.59;101462.84;4975048;28;96641;-69
2020/12/19 05:21:57;;;;;;;47.42;32.03;;;;;;;9.97;75.18;101469.53;4974414;28;98603;-69
2020/12/19 05:24:36;;;;;;;49.97;34.20;;;;;;;9.85;75.58;101460.28;4973207;28;98629;-69
2020/12/19 05:27:04;;;;;;;50.50;33.90;;;;;;;9.89;75.57;101448.88;4958323;28;96698;-69
2020/12/19 05:29:34;;;;;;;45.78;29.77;;;;;;;9.92;75.26;101454.03;4969223;28;96841;-69
2020/12/19 05:32:01;;;;;;;47.25;33.08;;;;;;;9.91;75.36;101456.69;4973163;28;98455;-69
2020/12/19 05:34:27;;;;;;;49.80;33.55;;;;;;;9.93;75.35;101450.50;4973670;28;98789;-68
2020/12/19 05:36:57;;;;;;;50.25;32.40;;;;;;;9.98;74.85;101459.06;4964005;28;96623;-68
2020/12/19 05:39:23;;;;;;;46.25;31.55;;;;;;;10.00;74.87;101461.59;4967643;28;96855;-69
2020/12/19 05:41:50;;;;;;;46.33;30.60;;;;;;;9.93;74.99;101468.75;4973676;28;97697;-68
2020/12/19 05:44:20;;;;;;;47.35;31.40;;;;;;;9.71;76.06;101465.03;4973218;28;98669;-69
2020/12/19 05:46:46;;;;;;;48.50;30.83;;;;;;;9.91;75.17;101467.94;4973695;28;96583;-69
2020/12/19 05:49:12;;;;;;;44.78;30.35;;;;;;;9.91;75.14;101464.50;4974326;28;96660;-69
2020/12/19 05:51:40;;;;;;;47.08;29.20;;;;;;;9.98;74.82;101458.19;4973777;28;98526;-70
2020/12/19 05:54:08;;;;;;;57.83;35.97;;;;;;;9.94;75.34;101465.25;4967407;28;98654;-69
2020/12/19 05:56:42;;;;;;;54.28;32.50;;;;;;;9.81;75.58;101465.63;4960730;28;96579;-69
2020/12/19 05:59:15;;;;;;;53.17;34.30;;;;;;;9.86;75.82;101466.38;4962074;28;96726;-71
2020/12/19 06:01:45;;;;;;;61.97;36.42;;;;;;;9.86;76.01;101475.03;4957332;28;98793;-69
2020/12/19 06:04:12;;;;;;;59.33;36.67;;;;;;;9.91;75.91;101473.16;4969874;28;98487;-69
2020/12/19 06:06:43;;;;;;;54.95;35.95;;;;;;;9.95;75.88;101469.53;4973210;28;96594;-70
2020/12/19 06:09:10;;;;;;;62.13;38.90;;;;;;;9.80;76.27;101475.19;4956521;28;96544;-71
2020/12/19 06:11:52;;;;;;;58.38;38.50;;;;;;;9.88;75.97;101473.22;4973477;28;98833;-69
2020/12/19 06:14:24;;;;;;;65.38;37.65;;;;;;;9.79;76.34;101475.22;4956562;28;98341;-67
2020/12/19 06:16:54;;;;;;;58.80;34.47;;;;;;;9.75;76.87;101478.78;4955657;28;97114;-67
2020/12/19 06:19:21;;;;;;;55.42;37.08;;;;;;;9.83;76.56;101479.47;4941024;28;96636;-67
2020/12/19 06:21:56;;;;;;;75.22;40.33;;;;;;;9.86;76.07;101474.19;4972921;28;98598;-69
2020/12/19 06:24:47;;;;;;;56.00;36.10;;;;;;;9.96;75.48;101476.50;4972511;28;98576;-69
2020/12/19 06:27:18;;;;;;;58.30;35.97;;;;;;;10.06;75.02;101474.44;4970183;28;96848;-70
2020/12/19 06:29:44;;;;;;;56.20;37.03;;;;;;;10.02;75.22;101475.47;4965512;28;97981;-69
2020/12/19 06:32:23;;;;;;;50.20;30.67;;;;;;;10.00;75.60;101473.78;4971734;28;98641;-68
2020/12/19 06:35:02;;;;;;;57.13;33.85;;;;;;;10.05;75.00;101471.91;4966898;28;98664;-69
2020/12/19 06:37:29;;;;;;;51.75;33.83;;;;;;;10.04;74.89;101467.59;4973052;28;96746;-69
2020/12/19 06:40:18;;;;;;;50.17;31.33;;;;;;;9.99;74.36;101462.50;4969807;28;96740;-69
2020/12/19 06:42:48;;;;;;;44.03;25.63;;;;;;;9.89;75.03;101474.06;4975327;28;98521;-69
2020/12/19 06:45:28;;;;;;;49.10;27.30;;;;;;;9.98;74.57;101482.50;4974387;28;98561;-68
2020/12/19 06:47:56;;;;;;;46.92;27.70;;;;;;;9.87;74.99;101487.16;4975500;28;96774;-69
2020/12/19 06:50:22;;;;;;;47.10;26.88;;;;;;;9.77;75.33;101487.44;4974017;28;97140;-67
2020/12/19 06:52:53;;;;;;;46.00;29.27;;;;;;;9.73;75.58;101491.00;4974142;28;98656;-69
2020/12/19 06:55:20;;;;;;;38.55;24.00;;;;;;;9.77;75.56;101488.28;4967881;28;98496;-69
2020/12/19 06:57:53;;;;;;;49.75;28.80;;;;;;;9.73;75.37;101497.06;4974988;28;96603;-69
2020/12/19 07:00:23;;;;;;;42.88;26.05;;;;;;;9.67;76.29;101495.50;4974416;28;96838;-69
2020/12/19 07:02:57;;;;;;;45.15;27.90;;;;;;;9.66;76.21;101495.53;4968926;28;98552;-69
2020/12/19 07:05:24;;;;;;;42.17;25.40;;;;;;;9.74;75.72;101505.75;4969792;28;98518;-69
2020/12/19 07:07:51;;;;;;;47.17;27.10;;;;;;;9.84;75.91;101513.25;4972150;28;96496;-69
2020/12/19 07:10:47;;;;;;;44.67;27.52;;;;;;;9.63;76.96;101509.47;4976605;28;96773;-69
2020/12/19 07:13:14;;;;;;;47.65;28.60;;;;;;;9.62;77.13;101501.72;4958594;28;98695;-68
2020/12/19 07:15:48;;;;;;;41.58;26.83;;;;;;;9.83;76.85;101508.09;4939515;28;98712;-68
2020/12/19 07:18:32;;;;;;;45.08;27.95;;;;;;;9.97;76.38;101504.25;4970833;28;96732;-69
2020/12/19 07:21:05;;;;;;;;;;;;;;;9.97;76.28;101503.38;4977169;28;96646;-69
2020/12/19 07:23:32;;;;;;;45.20;27.92;;;;;;;9.91;76.18;101507.00;4975753;28;98534;-70
2020/12/19 07:26:00;;;;;;;38.08;24.95;;;;;;;9.90;76.02;101513.09;4964593;28;98470;-69
2020/12/19 07:28:27;;;;;;;41.15;27.42;;;;;;;9.77;76.87;101506.53;4974734;28;96779;-67
2020/12/19 07:30:53;;;;;;;41.83;25.95;;;;;;;9.82;77.37;101509.84;4976637;28;97250;-69
2020/12/19 07:33:19;;;;;;;36.45;24.73;;;;;;;9.93;76.88;101517.38;4975402;28;97556;-70
2020/12/19 07:35:46;;;;;;;45.90;22.73;;;;;;;10.05;76.49;101516.19;4975290;28;98701;-70
2020/12/19 07:38:13;;;;;;;36.05;21.52;;;;;;;10.15;75.74;101525.47;4975332;28;96853;-70
2020/12/19 07:40:40;;;;;;;32.65;20.63;;;;;;;10.15;75.75;101522.84;4975313;28;96884;-70
2020/12/19 07:43:07;;;;;;;36.75;23.25;;;;;;;9.98;76.06;101521.56;4973295;28;98524;-69
2020/12/19 07:45:34;;;;;;;30.08;20.95;;;;;;;10.03;75.43;101512.78;4972453;28;98436;-67
2020/12/19 07:48:00;;;;;;;34.03;21.77;;;;;;;9.96;76.09;101518.16;4961572;28;96599;-69
2020/12/19 07:50:29;;;;;;;51.78;27.63;;;;;;;9.62;76.96;101528.59;4955678;28;97556;-70
2020/12/19 07:53:02;;;;;;;42.05;30.17;;;;;;;9.28;77.42;101523.41;4956362;28;98754;-69
2020/12/19 07:55:29;;;;;;;44.38;30.40;;;;;;;9.44;77.22;101521.28;4959160;28;98560;-69
2020/12/19 07:57:55;;;;;;;47.90;28.40;;;;;;;9.47;77.12;101522.94;4961904;28;96740;-69
2020/12/19 08:00:22;;;;;;;39.40;27.13;;;;;;;9.60;76.46;101532.16;4961847;28;96738;-70
2020/12/19 08:02:49;;;;;;;43.00;29.23;;;;;;;9.64;76.34;101532.03;4941853;28;98485;-68
2020/12/19 08:05:16;;;;;;;41.42;27.40;;;;;;;9.63;76.74;101545.06;4968007;28;98589;-67
2020/12/19 08:07:42;;;;;;;46.13;26.10;;;;;;;9.75;76.10;101542.19;4955333;28;96736;-70
2020/12/19 08:10:12;;;;;;;39.28;25.88;;;;;;;9.73;75.70;101541.34;4970260;28;96617;-69
2020/12/19 08:12:39;;;;;;;39.63;26.92;;;;;;;9.67;76.41;101541.50;4969799;28;98593;-70
2020/12/19 08:15:07;;;;;;;39.40;26.73;;;;;;;9.51;76.95;101540.19;4972042;28;98655;-69
2020/12/19 08:17:36;;;;;;;38.85;27.98;;;;;;;9.64;76.08;101537.25;4951532;28;96737;-69
2020/12/19 08:20:02;;;;;;;38.00;27.27;;;;;;;9.44;76.43;101536.88;4939942;28;96810;-71
2020/12/19 08:22:29;;;;;;;40.53;28.23;;;;;;;9.18;77.05;101532.31;4966159;28;97634;-70
2020/12/19 08:24:58;;;;;;;43.35;28.33;;;;;;;9.53;76.22;101530.56;4951612;28;98606;-70
2020/12/19 08:27:25;;;;;;;42.70;28.83;;;;;;;9.50;75.86;101522.84;4953215;28;97859;-71
2020/12/19 08:30:24;;;;;;;48.65;29.98;;;;;;;9.39;76.15;101531.78;4969280;28;97933;-71
2020/12/19 08:32:54;;;;;;;47.55;29.30;;;;;;;9.33;76.51;101526.75;4958612;28;98650;-66
2020/12/19 08:35:23;;;;;;;44.58;29.02;;;;;;;9.31;76.88;101528.50;4973504;28;98226;-68
2020/12/19 08:37:50;;;;;;;46.08;32.78;;;;;;;9.31;76.52;101533.72;4970522;28;96605;-69
2020/12/19 08:40:19;;;;;;;44.13;30.08;;;;;;;9.38;76.69;101537.03;4962857;28;97114;-65
2020/12/19 08:42:46;;;;;;;43.38;30.33;;;;;;;9.59;75.90;101538.25;4974085;28;96724;-68
2020/12/19 08:45:14;;;;;;;46.22;30.15;;;;;;;9.35;76.71;101542.31;4973204;28;97671;-67
2020/12/19 08:47:40;;;;;;;40.80;28.42;;;;;;;9.50;76.15;101541.09;4974520;28;96603;-68
2020/12/19 08:50:07;;;;;;;34.63;27.25;;;;;;;9.68;76.25;101544.06;4974704;28;96816;-69
2020/12/19 08:52:33;;;;;;;73.85;32.38;;;;;;;9.74;75.65;101535.22;4972713;28;98575;-69
2020/12/19 08:55:00;;;;;;;41.25;30.10;;;;;;;9.78;76.03;101529.06;4961327;28;98678;-69
2020/12/19 08:57:30;;;;;;;42.80;29.30;;;;;;;9.79;75.51;101525.56;4961777;28;98162;-69
2020/12/19 09:00:11;;;;;;;63.80;29.58;;;;;;;9.87;75.56;101534.03;4956311;28;96762;-69
2020/12/19 09:02:37;;;;;;;36.88;27.35;;;;;;;9.96;75.06;101546.81;4954978;28;98481;-70
2020/12/19 09:05:07;;;;;;;48.10;27.45;;;;;;;10.05;75.19;101539.63;4957010;28;99021;-69
2020/12/19 09:07:33;;;;;;;48.50;29.88;;;;;;;10.12;74.95;101538.56;4957202;28;96800;-68
2020/12/19 09:10:25;;;;;;;47.90;32.13;;;;;;;10.07;74.83;101541.31;4891490;28;97123;-69
2020/12/19 09:13:20;;;;;;;48.42;31.27;;;;;;;10.24;74.36;101546.09;4940956;28;108470;-69
2020/12/19 09:15:46;;;;;;;45.33;29.15;;;;;;;10.22;74.27;101551.28;4957816;28;98364;-69
2020/12/19 09:18:17;;;;;;;43.97;29.35;;;;;;;10.12;74.84;101551.59;4959242;28;97176;-69
2020/12/19 09:20:44;;;;;;;45.58;30.30;;;;;;;10.12;75.26;101559.41;4959888;28;96780;-69
2020/12/19 09:23:10;;;;;;;44.08;28.45;;;;;;;10.28;74.63;101559.88;4956559;28;98565;-71
2020/12/19 09:25:37;;;;;;;37.85;27.77;;;;;;;10.33;74.50;101558.84;4958741;28;98339;-68
2020/12/19 09:28:04;;;;;;;39.88;27.73;;;;;;;10.34;74.11;101547.53;4963687;28;98010;-70
2020/12/19 09:30:30;;;;;;;38.90;28.20;;;;;;;10.33;74.27;101560.59;4960200;28;96901;-67
2020/12/19 09:32:57;;;;;;;43.45;29.55;;;;;;;10.34;74.42;101555.38;4940963;28;98640;-68
2020/12/19 09:35:27;;;;;;;42.30;30.33;;;;;;;10.37;74.29;101554.41;4956631;28;98546;-66
2020/12/19 09:37:54;;;;;;;39.83;27.20;;;;;;;10.28;74.03;101550.34;4955888;28;96691;-65
2020/12/19 09:40:27;;;;;;;43.78;27.98;;;;;;;10.37;74.65;101549.19;4957185;28;97472;-65
2020/12/19 09:42:54;;;;;;;41.22;26.83;;;;;;;10.30;74.38;101547.66;4958661;28;98656;-65
2020/12/19 09:45:20;;;;;;;40.58;26.55;;;;;;;10.28;74.14;101545.13;4960135;28;98582;-68
2020/12/19 09:47:47;;;;;;;40.05;27.77;;;;;;;10.39;73.97;101537.00;4955894;28;97380;-68
2020/12/19 09:50:14;;;;;;;37.72;26.42;;;;;;;10.42;73.98;101537.75;4958247;28;96848;-69
2020/12/19 09:52:40;;;;;;;35.35;23.85;;;;;;;10.64;73.63;101537.13;4967002;28;98948;-69
2020/12/19 09:55:08;;;;;;;31.98;24.13;;;;;;;10.59;73.68;101539.00;4970116;28;98425;-69
2020/12/19 09:57:35;;;;;;;37.05;25.45;;;;;;;10.64;73.42;101543.19;4965085;28;97187;-68
2020/12/19 10:00:05;;;;;;;35.35;24.88;;;;;;;10.17;74.39;101539.28;4969848;28;97177;-68
2020/12/19 10:02:37;;;;;;;32.58;23.83;;;;;;;10.05;74.71;101524.00;4956054;28;97330;-69
2020/12/19 10:05:06;;;;;;;35.42;25.73;;;;;;;10.16;74.58;101528.00;4972682;28;98558;-68
2020/12/19 10:07:32;;;;;;;37.58;24.27;;;;;;;10.36;74.72;101526.66;4973309;28;97093;-69
2020/12/19 10:09:58;;;;;;;39.20;23.98;;;;;;;10.43;74.02;101529.00;4971688;28;97137;-68
2020/12/19 10:12:25;;;;;;;39.42;25.40;;;;;;;10.65;73.68;101531.00;4962009;28;98685;-69
2020/12/19 10:14:51;;;;;;;31.95;24.40;;;;;;;10.56;74.02;101523.47;4972394;28;98424;-69
2020/12/19 10:17:18;;;;;;;28.35;20.73;;;;;;;10.69;73.83;101522.19;4972391;28;96824;-70
2020/12/19 10:19:44;;;;;;;33.45;22.55;;;;;;;10.67;73.15;101518.78;4973770;28;96692;-69
2020/12/19 10:22:11;;;;;;;30.73;23.02;;;;;;;10.58;73.48;101519.03;4967517;28;98417;-68
2020/12/19 10:24:37;;;;;;;33.97;23.92;;;;;;;10.47;73.93;101527.19;4967020;28;98466;-68
2020/12/19 10:27:04;;;;;;;31.05;22.40;;;;;;;10.35;74.59;101520.56;4965264;28;96845;-69
2020/12/19 10:29:30;;;;;;;33.60;23.50;;;;;;;10.30;74.64;101525.06;4959595;28;97009;-69
2020/12/19 10:31:56;;;;;;;34.60;23.25;;;;;;;10.62;73.50;101526.72;4956586;28;99045;-69
2020/12/19 10:34:23;;;;;;;33.47;23.35;;;;;;;10.61;73.13;101518.97;4959795;28;98426;-68
2020/12/19 10:36:52;;;;;;;32.47;23.35;;;;;;;10.22;74.27;101519.16;4952969;28;96972;-69
2020/12/19 10:39:18;;;;;;;34.38;23.02;;;;;;;10.32;74.75;101510.22;4953198;28;96799;-69
2020/12/19 10:41:49;;;;;;;29.77;21.65;;;;;;;10.63;73.90;101515.41;4957298;28;98462;-69
2020/12/19 10:44:16;;;;;;;34.47;24.38;;;;;;;10.57;74.08;101518.19;4954539;28;98493;-68
2020/12/19 10:46:42;;;;;;;34.67;24.00;;;;;;;10.55;73.62;101511.34;4970742;28;96600;-69
2020/12/19 10:49:09;;;;;;;33.65;23.50;;;;;;;10.16;74.29;101511.53;4970563;28;96677;-67
2020/12/19 10:51:35;;;;;;;36.25;23.70;;;;;;;10.40;73.92;101508.25;4966845;28;98572;-68
2020/12/19 10:54:02;;;;;;;36.55;27.08;;;;;;;10.40;73.66;101513.47;4969684;28;98464;-67
2020/12/19 10:56:28;;;;;;;48.90;34.50;;;;;;;10.60;73.45;101515.50;4964659;28;96506;-65
2020/12/19 10:58:55;;;;;;;49.20;33.53;;;;;;;10.67;73.37;101519.63;4971919;28;97883;-65
2020/12/19 11:01:21;;;;;;;40.92;31.35;;;;;;;10.57;73.35;101506.91;4953627;28;98667;-64
2020/12/19 11:03:47;;;;;;;48.75;34.90;;;;;;;10.63;73.76;101493.69;4967046;28;98458;-63
2020/12/19 11:06:21;;;;;;;44.60;32.35;;;;;;;10.70;73.21;101497.81;4972714;28;96682;-67
2020/12/19 11:08:47;;;;;;;37.10;26.73;;;;;;;10.77;72.93;101501.09;4968072;28;97119;-67
2020/12/19 11:11:22;;;;;;;43.38;30.60;;;;;;;10.78;73.19;101493.22;4965159;28;97581;-68
2020/12/19 11:13:49;;;;;;;39.45;26.13;;;;;;;10.87;72.64;101489.47;4951722;28;99315;-72
2020/12/19 11:16:28;;;;;;;45.05;32.05;;;;;;;10.88;71.91;101479.00;4952773;28;96884;-75
2020/12/19 11:18:56;;;;;;;41.58;29.75;;;;;;;10.85;72.25;101483.44;4949717;28;97101;-78